sensor_id;sensor_type;location;lat;lon;timestamp;pressure;altitude;pressure_sealevel;temperature;humidity
80321;BME280;69633;47.066;15.450;2023-06-22T00:00:59;97925.59;;;21.97;73.34
80321;BME280;69633;47.066;15.450;2023-06-22T00:03:27;97935.66;;;21.93;73.32
80321;BME280;69633;47.066;15.450;2023-06-22T00:05:55;97923.31;;;21.92;73.10
80321;BME280;69633;47.066;15.450;2023-06-22T00:08:22;97931.41;;;21.96;73.24
80321;BME280;69633;47.066;15.450;2023-06-22T00:10:48;97929.50;;;21.96;72.83
80321;BME280;69633;47.066;15.450;2023-06-22T00:13:16;97928.72;;;21.96;73.02
80321;BME280;69633;47.066;15.450;2023-06-22T00:15:44;97928.72;;;21.89;73.33
80321;BME280;69633;47.066;15.450;2023-06-22T00:18:14;97932.22;;;21.86;73.29
80321;BME280;69633;47.066;15.450;2023-06-22T00:20:41;97935.69;;;21.83;73.48
80321;BME280;69633;47.066;15.450;2023-06-22T00:23:08;97929.53;;;21.79;73.49
80321;BME280;69633;47.066;15.450;2023-06-22T00:25:40;97927.63;;;21.72;73.64
80321;BME280;69633;47.066;15.450;2023-06-22T00:28:12;97928.41;;;21.69;73.73
80321;BME280;69633;47.066;15.450;2023-06-22T00:30:39;97927.28;;;21.66;74.06
80321;BME280;69633;47.066;15.450;2023-06-22T00:33:04;97922.25;;;21.65;73.64
80321;BME280;69633;47.066;15.450;2023-06-22T00:35:34;97930.72;;;21.63;73.54
80321;BME280;69633;47.066;15.450;2023-06-22T00:38:01;97926.50;;;21.62;73.70
80321;BME280;69633;47.066;15.450;2023-06-22T00:40:31;97929.56;;;21.64;73.85
80321;BME280;69633;47.066;15.450;2023-06-22T00:42:59;97921.09;;;21.62;73.59
80321;BME280;69633;47.066;15.450;2023-06-22T00:45:29;97917.22;;;21.63;73.74
80321;BME280;69633;47.066;15.450;2023-06-22T00:47:56;97920.72;;;21.60;73.77
80321;BME280;69633;47.066;15.450;2023-06-22T00:50:29;97914.16;;;21.58;73.73
80321;BME280;69633;47.066;15.450;2023-06-22T00:53:04;97908.00;;;21.57;73.73
80321;BME280;69633;47.066;15.450;2023-06-22T00:55:36;97919.59;;;21.54;73.93
80321;BME280;69633;47.066;15.450;2023-06-22T00:58:06;97910.34;;;21.52;73.93
80321;BME280;69633;47.066;15.450;2023-06-22T01:00:37;97896.44;;;21.50;74.31
80321;BME280;69633;47.066;15.450;2023-06-22T01:03:05;97898.38;;;21.46;74.40
80321;BME280;69633;47.066;15.450;2023-06-22T01:05:36;97896.81;;;21.55;73.95
80321;BME280;69633;47.066;15.450;2023-06-22T01:11:18;97906.44;;;21.60;73.84
80321;BME280;69633;47.066;15.450;2023-06-22T01:14:06;97901.03;;;21.56;74.14
80321;BME280;69633;47.066;15.450;2023-06-22T01:16:41;97898.75;;;21.51;74.06
80321;BME280;69633;47.066;15.450;2023-06-22T01:19:44;97897.22;;;21.50;74.16
80321;BME280;69633;47.066;15.450;2023-06-22T01:22:15;97900.28;;;21.52;73.61
80321;BME280;69633;47.066;15.450;2023-06-22T01:30:43;97904.53;;;21.53;73.67
80321;BME280;69633;47.066;15.450;2023-06-22T01:33:13;97913.41;;;21.50;73.31
80321;BME280;69633;47.066;15.450;2023-06-22T01:35:41;97910.34;;;21.41;73.21
80321;BME280;69633;47.066;15.450;2023-06-22T01:38:09;97904.16;;;21.41;73.46
80321;BME280;69633;47.066;15.450;2023-06-22T01:40:36;97909.19;;;21.42;73.44
80321;BME280;69633;47.066;15.450;2023-06-22T01:43:05;97902.63;;;21.43;73.46
80321;BME280;69633;47.066;15.450;2023-06-22T01:45:35;97899.94;;;21.47;73.49
80321;BME280;69633;47.066;15.450;2023-06-22T01:48:02;97908.03;;;21.43;73.87
80321;BME280;69633;47.066;15.450;2023-06-22T01:50:29;97916.16;;;21.43;74.06
80321;BME280;69633;47.066;15.450;2023-06-22T01:52:56;97912.69;;;21.39;74.24
80321;BME280;69633;47.066;15.450;2023-06-22T01:55:23;97913.47;;;21.36;74.16
80321;BME280;69633;47.066;15.450;2023-06-22T01:57:49;97912.69;;;21.39;74.03
80321;BME280;69633;47.066;15.450;2023-06-22T02:00:20;97908.09;;;21.29;74.61
80321;BME280;69633;47.066;15.450;2023-06-22T02:03:11;97908.06;;;21.22;75.00
80321;BME280;69633;47.066;15.450;2023-06-22T02:05:45;97907.31;;;21.25;74.85
80321;BME280;69633;47.066;15.450;2023-06-22T02:08:27;97914.25;;;21.26;74.91
80321;BME280;69633;47.066;15.450;2023-06-22T02:10:55;97913.88;;;21.20;75.11
80321;BME280;69633;47.066;15.450;2023-06-22T02:13:24;97919.66;;;21.12;75.41
80321;BME280;69633;47.066;15.450;2023-06-22T02:15:50;97914.25;;;21.05;76.01
80321;BME280;69633;47.066;15.450;2023-06-22T02:18:17;97914.25;;;21.01;76.03
80321;BME280;69633;47.066;15.450;2023-06-22T02:20:44;97923.13;;;20.98;76.13
80321;BME280;69633;47.066;15.450;2023-06-22T02:23:11;97924.69;;;21.03;76.21
80321;BME280;69633;47.066;15.450;2023-06-22T02:25:38;97926.97;;;21.04;75.92
80321;BME280;69633;47.066;15.450;2023-06-22T02:28:05;97936.63;;;21.05;75.63
80321;BME280;69633;47.066;15.450;2023-06-22T02:30:31;97933.53;;;21.03;76.02
80321;BME280;69633;47.066;15.450;2023-06-22T02:32:58;97932.00;;;20.99;75.77
80321;BME280;69633;47.066;15.450;2023-06-22T02:35:28;97934.31;;;20.97;75.92
80321;BME280;69633;47.066;15.450;2023-06-22T02:38:02;97931.25;;;20.98;76.05
80321;BME280;69633;47.066;15.450;2023-06-22T02:40:30;97941.63;;;21.00;75.72
80321;BME280;69633;47.066;15.450;2023-06-22T02:42:56;97940.88;;;21.03;75.59
80321;BME280;69633;47.066;15.450;2023-06-22T02:45:42;97935.09;;;21.01;75.49
80321;BME280;69633;47.066;15.450;2023-06-22T02:48:08;97933.94;;;21.05;75.19
80321;BME280;69633;47.066;15.450;2023-06-22T02:50:36;97942.41;;;21.11;75.14
80321;BME280;69633;47.066;15.450;2023-06-22T02:53:02;97951.28;;;21.15;74.93
80321;BME280;69633;47.066;15.450;2023-06-22T02:55:30;97952.06;;;21.15;74.61
80321;BME280;69633;47.066;15.450;2023-06-22T02:58:17;97957.47;;;21.19;74.39
80321;BME280;69633;47.066;15.450;2023-06-22T03:00:47;97948.22;;;21.20;74.19
80321;BME280;69633;47.066;15.450;2023-06-22T03:03:13;97952.06;;;21.19;74.30
80321;BME280;69633;47.066;15.450;2023-06-22T03:05:40;97943.19;;;21.15;74.18
80321;BME280;69633;47.066;15.450;2023-06-22T03:08:06;97949.00;;;21.17;74.05
80321;BME280;69633;47.066;15.450;2023-06-22T03:10:32;97946.28;;;21.13;74.36
80321;BME280;69633;47.066;15.450;2023-06-22T03:12:59;97944.75;;;21.16;73.99
80321;BME280;69633;47.066;15.450;2023-06-22T03:15:25;97950.53;;;21.11;74.33
80321;BME280;69633;47.066;15.450;2023-06-22T03:17:51;97930.84;;;21.10;74.41
80321;BME280;69633;47.066;15.450;2023-06-22T03:20:17;97944.34;;;21.07;74.38
80321;BME280;69633;47.066;15.450;2023-06-22T03:23:01;97942.41;;;21.07;74.24
80321;BME280;69633;47.066;15.450;2023-06-22T03:25:27;97949.75;;;21.07;74.42
80321;BME280;69633;47.066;15.450;2023-06-22T03:27:53;97952.81;;;21.09;74.33
80321;BME280;69633;47.066;15.450;2023-06-22T03:30:20;97955.16;;;21.10;73.97
80321;BME280;69633;47.066;15.450;2023-06-22T03:32:45;97948.22;;;21.13;74.07
80321;BME280;69633;47.066;15.450;2023-06-22T03:35:13;97936.66;;;21.12;73.79
80321;BME280;69633;47.066;15.450;2023-06-22T03:37:39;97938.97;;;21.17;74.02
80321;BME280;69633;47.066;15.450;2023-06-22T03:40:07;97937.41;;;21.16;73.89
80321;BME280;69633;47.066;15.450;2023-06-22T03:42:39;97948.19;;;21.24;73.56
80321;BME280;69633;47.066;15.450;2023-06-22T03:45:07;97945.91;;;21.26;73.52
80321;BME280;69633;47.066;15.450;2023-06-22T03:47:34;97947.41;;;21.27;73.45
80321;BME280;69633;47.066;15.450;2023-06-22T03:50:01;97955.16;;;21.25;73.55
80321;BME280;69633;47.066;15.450;2023-06-22T03:52:30;97942.03;;;21.23;73.80
80321;BME280;69633;47.066;15.450;2023-06-22T03:55:01;97940.50;;;21.26;73.51
80321;BME280;69633;47.066;15.450;2023-06-22T03:57:27;97953.22;;;21.29;73.67
80321;BME280;69633;47.066;15.450;2023-06-22T04:00:05;97957.44;;;21.30;73.19
80321;BME280;69633;47.066;15.450;2023-06-22T04:02:34;97954.38;;;21.31;73.26
80321;BME280;69633;47.066;15.450;2023-06-22T04:05:01;97954.38;;;21.24;73.29
80321;BME280;69633;47.066;15.450;2023-06-22T04:07:33;97955.91;;;21.29;73.24
80321;BME280;69633;47.066;15.450;2023-06-22T04:09:59;97949.75;;;21.28;73.12
80321;BME280;69633;47.066;15.450;2023-06-22T04:12:26;97951.28;;;21.29;73.00
80321;BME280;69633;47.066;15.450;2023-06-22T04:14:52;97944.72;;;21.34;73.27
80321;BME280;69633;47.066;15.450;2023-06-22T04:17:19;97938.13;;;21.38;72.68
80321;BME280;69633;47.066;15.450;2023-06-22T04:19:46;97929.66;;;21.40;72.84
80321;BME280;69633;47.066;15.450;2023-06-22T04:22:13;97931.19;;;21.41;72.85
80321;BME280;69633;47.066;15.450;2023-06-22T04:24:40;97934.63;;;21.48;72.37
80321;BME280;69633;47.066;15.450;2023-06-22T04:27:07;97933.47;;;21.53;72.12
80321;BME280;69633;47.066;15.450;2023-06-22T04:29:32;97928.03;;;21.60;71.89
80321;BME280;69633;47.066;15.450;2023-06-22T04:32:00;97928.44;;;21.62;72.02
80321;BME280;69633;47.066;15.450;2023-06-22T04:34:32;97942.31;;;21.64;71.93
80321;BME280;69633;47.066;15.450;2023-06-22T04:36:58;97938.47;;;21.61;71.98
80321;BME280;69633;47.066;15.450;2023-06-22T04:39:24;97945.78;;;21.64;71.64
80321;BME280;69633;47.066;15.450;2023-06-22T04:41:53;97935.75;;;21.65;71.61
80321;BME280;69633;47.066;15.450;2023-06-22T04:44:26;97939.22;;;21.65;71.71
80321;BME280;69633;47.066;15.450;2023-06-22T04:47:11;97930.72;;;21.71;71.26
80321;BME280;69633;47.066;15.450;2023-06-22T04:49:37;97930.28;;;21.79;71.32
80321;BME280;69633;47.066;15.450;2023-06-22T04:52:05;97936.88;;;21.82;71.25
80321;BME280;69633;47.066;15.450;2023-06-22T04:54:33;97931.81;;;21.84;70.92
80321;BME280;69633;47.066;15.450;2023-06-22T04:57:00;97937.63;;;21.93;70.64
80321;BME280;69633;47.066;15.450;2023-06-22T04:59:28;97936.03;;;21.99;70.50
80321;BME280;69633;47.066;15.450;2023-06-22T05:01:59;97920.91;;;22.08;70.43
80321;BME280;69633;47.066;15.450;2023-06-22T05:04:31;97920.16;;;22.08;70.65
80321;BME280;69633;47.066;15.450;2023-06-22T05:07:02;97924.31;;;22.23;69.71
80321;BME280;69633;47.066;15.450;2023-06-22T05:09:29;97919.31;;;22.18;69.82
80321;BME280;69633;47.066;15.450;2023-06-22T05:11:56;97921.94;;;22.32;69.59
80321;BME280;69633;47.066;15.450;2023-06-22T05:14:22;97919.59;;;22.38;69.20
80321;BME280;69633;47.066;15.450;2023-06-22T05:16:50;97919.09;;;22.57;68.85
80321;BME280;69633;47.066;15.450;2023-06-22T05:19:19;97920.59;;;22.58;68.36
80321;BME280;69633;47.066;15.450;2023-06-22T05:21:47;97907.47;;;22.56;68.38
80321;BME280;69633;47.066;15.450;2023-06-22T05:24:13;97910.50;;;22.65;68.40
80321;BME280;69633;47.066;15.450;2023-06-22T05:26:40;97918.50;;;22.87;67.87
80321;BME280;69633;47.066;15.450;2023-06-22T05:29:07;97914.53;;;22.95;67.71
80321;BME280;69633;47.066;15.450;2023-06-22T05:31:35;97908.38;;;22.91;67.54
80321;BME280;69633;47.066;15.450;2023-06-22T05:34:01;97914.44;;;23.05;67.25
80321;BME280;69633;47.066;15.450;2023-06-22T05:36:27;97907.13;;;22.99;66.75
80321;BME280;69633;47.066;15.450;2023-06-22T05:38:56;97919.34;;;23.18;66.79
80321;BME280;69633;47.066;15.450;2023-06-22T05:41:27;97916.31;;;23.12;66.83
80321;BME280;69633;47.066;15.450;2023-06-22T05:43:54;97918.94;;;23.19;66.51
80321;BME280;69633;47.066;15.450;2023-06-22T05:46:25;97920.47;;;23.24;66.34
80321;BME280;69633;47.066;15.450;2023-06-22T05:48:52;97912.22;;;23.34;65.88
80321;BME280;69633;47.066;15.450;2023-06-22T05:51:19;97916.69;;;23.51;65.58
80321;BME280;69633;47.066;15.450;2023-06-22T05:53:45;97913.59;;;23.53;65.14
80321;BME280;69633;47.066;15.450;2023-06-22T05:56:18;97911.22;;;23.55;65.23
80321;BME280;69633;47.066;15.450;2023-06-22T05:58:45;97905.72;;;23.66;65.65
80321;BME280;69633;47.066;15.450;2023-06-22T06:01:12;97901.38;;;23.72;64.97
80321;BME280;69633;47.066;15.450;2023-06-22T06:03:39;97907.81;;;23.81;64.42
80321;BME280;69633;47.066;15.450;2023-06-22T06:06:08;97905.34;;;23.94;64.86
80321;BME280;69633;47.066;15.450;2023-06-22T06:08:34;97907.41;;;24.13;64.15
80321;BME280;69633;47.066;15.450;2023-06-22T06:11:00;97900.63;;;24.28;63.70
80321;BME280;69633;47.066;15.450;2023-06-22T06:13:26;97904.19;;;24.25;63.38
80321;BME280;69633;47.066;15.450;2023-06-22T06:15:53;97909.59;;;24.25;63.08
80321;BME280;69633;47.066;15.450;2023-06-22T06:18:21;97903.81;;;24.23;62.97
80321;BME280;69633;47.066;15.450;2023-06-22T06:20:46;97902.41;;;24.38;63.27
80321;BME280;69633;47.066;15.450;2023-06-22T06:23:13;97897.72;;;24.42;63.25
80321;BME280;69633;47.066;15.450;2023-06-22T06:25:39;97898.31;;;24.53;63.09
80321;BME280;69633;47.066;15.450;2023-06-22T06:28:05;97890.09;;;24.84;62.47
80321;BME280;69633;47.066;15.450;2023-06-22T06:30:32;97885.69;;;25.13;61.40
80321;BME280;69633;47.066;15.450;2023-06-22T06:32:59;97890.38;;;25.32;61.01
80321;BME280;69633;47.066;15.450;2023-06-22T06:35:24;97886.47;;;25.57;60.54
80321;BME280;69633;47.066;15.450;2023-06-22T06:37:50;97885.94;;;25.62;59.95
80321;BME280;69633;47.066;15.450;2023-06-22T06:40:21;97883.16;;;25.45;60.30
80321;BME280;69633;47.066;15.450;2023-06-22T06:42:51;97875.56;;;25.57;59.89
80321;BME280;69633;47.066;15.450;2023-06-22T06:45:22;97868.84;;;25.81;59.36
80321;BME280;69633;47.066;15.450;2023-06-22T06:47:51;97875.28;;;26.07;58.46
80321;BME280;69633;47.066;15.450;2023-06-22T06:50:18;97873.13;;;26.34;58.25
80321;BME280;69633;47.066;15.450;2023-06-22T06:52:45;97878.28;;;26.12;58.39
80321;BME280;69633;47.066;15.450;2023-06-22T06:55:12;97868.91;;;26.13;58.52
80321;BME280;69633;47.066;15.450;2023-06-22T06:57:42;97873.38;;;26.23;57.53
80321;BME280;69633;47.066;15.450;2023-06-22T07:00:12;97869.81;;;26.75;56.13
80321;BME280;69633;47.066;15.450;2023-06-22T07:02:44;97865.75;;;27.12;54.69
80321;BME280;69633;47.066;15.450;2023-06-22T07:05:15;97866.81;;;27.30;53.95
80321;BME280;69633;47.066;15.450;2023-06-22T07:07:41;97866.41;;;27.45;54.50
80321;BME280;69633;47.066;15.450;2023-06-22T07:10:10;97869.25;;;27.41;54.45
80321;BME280;69633;47.066;15.450;2023-06-22T07:12:37;97863.13;;;27.08;55.20
80321;BME280;69633;47.066;15.450;2023-06-22T07:15:09;97857.16;;;27.13;55.16
80321;BME280;69633;47.066;15.450;2023-06-22T07:17:37;97854.47;;;27.26;54.77
80321;BME280;69633;47.066;15.450;2023-06-22T07:20:04;97857.84;;;27.46;53.50
80321;BME280;69633;47.066;15.450;2023-06-22T07:22:42;97866.41;;;27.73;53.09
80321;BME280;69633;47.066;15.450;2023-06-22T07:25:10;97853.44;;;27.90;52.61
80321;BME280;69633;47.066;15.450;2023-06-22T07:27:46;97852.38;;;28.00;52.45
80321;BME280;69633;47.066;15.450;2023-06-22T07:30:21;97849.88;;;28.18;52.02
80321;BME280;69633;47.066;15.450;2023-06-22T07:32:47;97845.91;;;28.32;52.12
80321;BME280;69633;47.066;15.450;2023-06-22T07:35:12;97842.00;;;28.46;51.46
80321;BME280;69633;47.066;15.450;2023-06-22T07:37:39;97839.56;;;28.48;51.19
80321;BME280;69633;47.066;15.450;2023-06-22T07:40:06;97845.56;;;28.55;51.07
80321;BME280;69633;47.066;15.450;2023-06-22T07:42:35;97853.16;;;28.26;52.08
80321;BME280;69633;47.066;15.450;2023-06-22T07:45:03;97846.41;;;27.64;53.36
80321;BME280;69633;47.066;15.450;2023-06-22T07:47:31;97847.53;;;27.92;52.96
80321;BME280;69633;47.066;15.450;2023-06-22T07:50:03;97850.16;;;28.71;50.99
80321;BME280;69633;47.066;15.450;2023-06-22T07:52:33;97839.97;;;29.06;49.58
80321;BME280;69633;47.066;15.450;2023-06-22T07:54:59;97846.53;;;29.08;49.46
80321;BME280;69633;47.066;15.450;2023-06-22T07:57:27;97851.06;;;29.24;49.52
80321;BME280;69633;47.066;15.450;2023-06-22T08:00:01;97847.38;;;29.40;48.98
80321;BME280;69633;47.066;15.450;2023-06-22T08:02:31;97839.44;;;29.33;49.09
80321;BME280;69633;47.066;15.450;2023-06-22T08:04:57;97838.28;;;29.43;49.14
80321;BME280;69633;47.066;15.450;2023-06-22T08:07:24;97845.44;;;29.71;48.95
80321;BME280;69633;47.066;15.450;2023-06-22T08:09:52;97839.81;;;29.65;48.96
80321;BME280;69633;47.066;15.450;2023-06-22T08:12:19;97834.56;;;29.58;49.21
80321;BME280;69633;47.066;15.450;2023-06-22T08:14:44;97830.44;;;30.06;48.12
80321;BME280;69633;47.066;15.450;2023-06-22T08:17:13;97833.16;;;30.06;48.62
80321;BME280;69633;47.066;15.450;2023-06-22T08:19:39;97834.22;;;29.78;49.04
80321;BME280;69633;47.066;15.450;2023-06-22T08:22:06;97831.13;;;29.67;49.08
80321;BME280;69633;47.066;15.450;2023-06-22T08:24:34;97826.19;;;29.53;49.15
80321;BME280;69633;47.066;15.450;2023-06-22T08:27:01;97826.59;;;30.04;48.69
80321;BME280;69633;47.066;15.450;2023-06-22T08:29:28;97818.00;;;30.23;47.72
80321;BME280;69633;47.066;15.450;2023-06-22T08:31:55;97826.91;;;30.46;47.62
80321;BME280;69633;47.066;15.450;2023-06-22T08:34:21;97822.38;;;30.70;46.78
80321;BME280;69633;47.066;15.450;2023-06-22T08:36:56;97821.81;;;31.02;46.71
80321;BME280;69633;47.066;15.450;2023-06-22T08:39:27;97824.53;;;31.21;46.50
80321;BME280;69633;47.066;15.450;2023-06-22T08:41:54;97823.94;;;30.98;46.64
80321;BME280;69633;47.066;15.450;2023-06-22T08:44:20;97822.09;;;30.77;47.38
80321;BME280;69633;47.066;15.450;2023-06-22T08:46:47;97821.31;;;30.95;47.58
80321;BME280;69633;47.066;15.450;2023-06-22T08:49:14;97818.00;;;31.00;45.95
80321;BME280;69633;47.066;15.450;2023-06-22T08:51:41;97828.81;;;31.03;46.42
80321;BME280;69633;47.066;15.450;2023-06-22T08:54:08;97824.09;;;31.04;46.26
80321;BME280;69633;47.066;15.450;2023-06-22T08:56:35;97817.09;;;31.03;45.25
80321;BME280;69633;47.066;15.450;2023-06-22T08:59:02;97815.38;;;30.87;45.82
80321;BME280;69633;47.066;15.450;2023-06-22T09:01:29;97809.59;;;31.12;45.92
80321;BME280;69633;47.066;15.450;2023-06-22T09:03:55;97812.34;;;31.22;45.65
80321;BME280;69633;47.066;15.450;2023-06-22T09:06:24;97803.78;;;30.65;46.36
80321;BME280;69633;47.066;15.450;2023-06-22T09:08:51;97807.91;;;30.79;46.10
80321;BME280;69633;47.066;15.450;2023-06-22T09:11:18;97806.69;;;31.25;45.84
80321;BME280;69633;47.066;15.450;2023-06-22T09:13:45;97807.41;;;31.44;45.44
80321;BME280;69633;47.066;15.450;2023-06-22T09:16:13;97800.38;;;31.61;45.13
80321;BME280;69633;47.066;15.450;2023-06-22T09:18:40;97798.13;;;31.92;44.19
80321;BME280;69633;47.066;15.450;2023-06-22T09:21:08;97799.84;;;30.66;46.16
80321;BME280;69633;47.066;15.450;2023-06-22T09:23:35;97802.28;;;30.73;45.95
80321;BME280;69633;47.066;15.450;2023-06-22T09:26:01;97800.16;;;31.13;45.65
80321;BME280;69633;47.066;15.450;2023-06-22T09:28:27;97803.22;;;31.06;45.77
80321;BME280;69633;47.066;15.450;2023-06-22T09:30:54;97796.44;;;31.44;45.10
80321;BME280;69633;47.066;15.450;2023-06-22T09:33:26;97802.53;;;31.48;44.39
80321;BME280;69633;47.066;15.450;2023-06-22T09:35:53;97798.56;;;31.49;44.74
80321;BME280;69633;47.066;15.450;2023-06-22T09:38:18;97794.59;;;31.59;44.71
80321;BME280;69633;47.066;15.450;2023-06-22T09:40:44;97793.97;;;31.64;44.68
80321;BME280;69633;47.066;15.450;2023-06-22T09:43:11;97789.78;;;31.27;45.46
80321;BME280;69633;47.066;15.450;2023-06-22T09:45:38;97785.63;;;31.40;45.32
80321;BME280;69633;47.066;15.450;2023-06-22T09:48:04;97786.38;;;31.59;45.51
80321;BME280;69633;47.066;15.450;2023-06-22T09:50:31;97782.06;;;31.67;45.51
80321;BME280;69633;47.066;15.450;2023-06-22T09:52:56;97788.31;;;31.68;45.45
80321;BME280;69633;47.066;15.450;2023-06-22T09:57:47;97778.06;;;31.77;45.21
80321;BME280;69633;47.066;15.450;2023-06-22T10:00:18;97780.53;;;31.66;45.93
80321;BME280;69633;47.066;15.450;2023-06-22T10:02:46;97778.13;;;31.50;46.71
80321;BME280;69633;47.066;15.450;2023-06-22T10:05:14;97775.34;;;31.08;47.38
80321;BME280;69633;47.066;15.450;2023-06-22T10:07:40;97781.25;;;31.15;47.08
80321;BME280;69633;47.066;15.450;2023-06-22T10:10:11;97772.78;;;31.46;46.94
80321;BME280;69633;47.066;15.450;2023-06-22T10:12:46;97771.31;;;31.36;46.47
80321;BME280;69633;47.066;15.450;2023-06-22T10:15:11;97776.56;;;31.67;45.88
80321;BME280;69633;47.066;15.450;2023-06-22T10:17:38;97775.03;;;31.66;46.38
80321;BME280;69633;47.066;15.450;2023-06-22T10:20:07;97768.88;;;31.29;46.81
80321;BME280;69633;47.066;15.450;2023-06-22T10:22:43;97764.34;;;31.17;47.53
80321;BME280;69633;47.066;15.450;2023-06-22T10:25:11;97763.59;;;30.89;47.48
80321;BME280;69633;47.066;15.450;2023-06-22T10:27:40;97755.66;;;31.19;46.54
80321;BME280;69633;47.066;15.450;2023-06-22T10:30:11;97754.34;;;31.56;46.16
80321;BME280;69633;47.066;15.450;2023-06-22T10:33:00;97749.94;;;31.40;46.31
80321;BME280;69633;47.066;15.450;2023-06-22T10:35:27;97761.09;;;31.37;46.10
80321;BME280;69633;47.066;15.450;2023-06-22T10:37:54;97758.00;;;31.44;45.73
80321;BME280;69633;47.066;15.450;2023-06-22T10:40:26;97753.78;;;31.34;46.17
80321;BME280;69633;47.066;15.450;2023-06-22T10:42:53;97752.38;;;31.38;45.63
80321;BME280;69633;47.066;15.450;2023-06-22T10:45:20;97759.84;;;31.56;45.09
80321;BME280;69633;47.066;15.450;2023-06-22T10:47:46;97756.47;;;31.52;45.79
80321;BME280;69633;47.066;15.450;2023-06-22T10:50:13;97752.53;;;31.44;46.94
80321;BME280;69633;47.066;15.450;2023-06-22T10:52:40;97747.84;;;31.77;45.94
80321;BME280;69633;47.066;15.450;2023-06-22T10:55:09;97740.94;;;31.49;46.14
80321;BME280;69633;47.066;15.450;2023-06-22T10:57:36;97741.94;;;31.09;47.82
80321;BME280;69633;47.066;15.450;2023-06-22T11:00:06;97733.28;;;31.02;48.02
80321;BME280;69633;47.066;15.450;2023-06-22T11:02:36;97732.25;;;31.41;47.78
80321;BME280;69633;47.066;15.450;2023-06-22T11:05:02;97729.50;;;31.83;46.69
80321;BME280;69633;47.066;15.450;2023-06-22T11:07:30;97724.66;;;32.02;46.12
80321;BME280;69633;47.066;15.450;2023-06-22T11:09:58;97724.28;;;32.42;45.10
80321;BME280;69633;47.066;15.450;2023-06-22T11:12:24;97721.56;;;32.56;45.43
80321;BME280;69633;47.066;15.450;2023-06-22T11:14:49;97721.19;;;32.87;44.82
80321;BME280;69633;47.066;15.450;2023-06-22T11:17:18;97716.47;;;33.17;44.29
80321;BME280;69633;47.066;15.450;2023-06-22T11:19:45;97711.22;;;33.34;42.93
80321;BME280;69633;47.066;15.450;2023-06-22T11:22:12;97716.81;;;32.95;44.52
80321;BME280;69633;47.066;15.450;2023-06-22T11:24:39;97716.91;;;33.01;44.27
80321;BME280;69633;47.066;15.450;2023-06-22T11:27:05;97717.66;;;33.01;44.73
80321;BME280;69633;47.066;15.450;2023-06-22T11:29:31;97711.59;;;32.83;45.16
80321;BME280;69633;47.066;15.450;2023-06-22T11:31:57;97712.22;;;32.63;45.47
80321;BME280;69633;47.066;15.450;2023-06-22T11:34:24;97714.31;;;32.68;45.21
80321;BME280;69633;47.066;15.450;2023-06-22T11:36:51;97711.50;;;33.07;45.04
80321;BME280;69633;47.066;15.450;2023-06-22T11:39:16;97716.59;;;33.72;43.13
80321;BME280;69633;47.066;15.450;2023-06-22T11:41:43;97708.94;;;34.17;42.17
80321;BME280;69633;47.066;15.450;2023-06-22T11:44:10;97703.66;;;34.33;41.67
80321;BME280;69633;47.066;15.450;2023-06-22T11:46:37;97696.41;;;34.36;41.65
80321;BME280;69633;47.066;15.450;2023-06-22T11:49:05;97694.78;;;34.70;41.45
80321;BME280;69633;47.066;15.450;2023-06-22T11:51:30;97691.69;;;34.88;40.99
80321;BME280;69633;47.066;15.450;2023-06-22T11:53:58;97691.91;;;34.84;41.25
80321;BME280;69633;47.066;15.450;2023-06-22T11:56:24;97693.38;;;34.80;40.67
80321;BME280;69633;47.066;15.450;2023-06-22T11:58:49;97685.38;;;34.62;41.74
80321;BME280;69633;47.066;15.450;2023-06-22T12:01:15;97686.91;;;34.63;41.12
80321;BME280;69633;47.066;15.450;2023-06-22T12:03:42;97695.59;;;35.02;40.91
80321;BME280;69633;47.066;15.450;2023-06-22T12:06:10;97685.16;;;34.85;41.13
80321;BME280;69633;47.066;15.450;2023-06-22T12:08:37;97676.53;;;34.52;42.07
80321;BME280;69633;47.066;15.450;2023-06-22T12:11:04;97670.72;;;34.50;42.05
80321;BME280;69633;47.066;15.450;2023-06-22T12:13:31;97668.16;;;34.92;41.41
80321;BME280;69633;47.066;15.450;2023-06-22T12:15:57;97667.47;;;35.29;40.87
80321;BME280;69633;47.066;15.450;2023-06-22T12:18:24;97665.13;;;35.53;39.74
80321;BME280;69633;47.066;15.450;2023-06-22T12:20:50;97666.28;;;35.72;39.47
80321;BME280;69633;47.066;15.450;2023-06-22T12:23:16;97665.19;;;36.07;38.79
80321;BME280;69633;47.066;15.450;2023-06-22T12:25:45;97653.19;;;36.21;38.38
80321;BME280;69633;47.066;15.450;2023-06-22T12:28:12;97655.22;;;36.26;38.89
80321;BME280;69633;47.066;15.450;2023-06-22T12:30:39;97656.72;;;36.27;38.90
80321;BME280;69633;47.066;15.450;2023-06-22T12:33:06;97650.72;;;35.75;39.61
80321;BME280;69633;47.066;15.450;2023-06-22T12:35:34;97644.53;;;35.97;39.30
80321;BME280;69633;47.066;15.450;2023-06-22T12:38:00;97648.69;;;36.18;39.01
80321;BME280;69633;47.066;15.450;2023-06-22T12:40:28;97645.44;;;36.36;38.94
80321;BME280;69633;47.066;15.450;2023-06-22T12:42:54;97647.97;;;36.40;38.96
80321;BME280;69633;47.066;15.450;2023-06-22T12:45:22;97652.25;;;36.46;38.70
80321;BME280;69633;47.066;15.450;2023-06-22T12:47:48;97658.88;;;35.58;39.84
80321;BME280;69633;47.066;15.450;2023-06-22T12:50:16;97645.72;;;35.79;39.28
80321;BME280;69633;47.066;15.450;2023-06-22T12:52:43;97644.69;;;36.41;38.60
80321;BME280;69633;47.066;15.450;2023-06-22T12:55:10;97639.50;;;36.65;37.65
80321;BME280;69633;47.066;15.450;2023-06-22T12:57:37;97639.75;;;37.01;37.75
80321;BME280;69633;47.066;15.450;2023-06-22T13:00:08;97632.50;;;37.14;37.16
80321;BME280;69633;47.066;15.450;2023-06-22T13:02:37;97635.75;;;37.13;36.90
80321;BME280;69633;47.066;15.450;2023-06-22T13:05:05;97625.81;;;37.79;36.98
80321;BME280;69633;47.066;15.450;2023-06-22T13:07:34;97626.13;;;37.47;37.07